Time;durP1;ratioP1;P1;durP2;ratioP2;P2;SDS_P1;SDS_P2;PMS_P1;PMS_P2;Temp;Humidity;BMP_temperature;BMP_pressure;BME280_temperature;BME280_humidity;BME280_pressure;Samples;Min_cycle;Max_cycle;Signal;HPM_P1;HPM_P2
2023/06/26 00:00:29;;;;;;;9.32;5.80;;;;;;;27.43;44.57;101312.81;5030340;28;20107;-49
2023/06/26 00:02:54;;;;;;;9.48;6.18;;;;;;;27.66;44.79;101316.19;5030828;28;20443;-47
2023/06/26 00:05:20;;;;;;;9.60;5.32;;;;;;;27.83;44.29;101314.38;5030260;28;20110;-49
2023/06/26 00:07:45;;;;;;;10.45;5.78;;;;;;;27.27;46.31;101321.66;5030685;28;20025;-46
2023/06/26 00:10:10;;;;;;;9.40;5.97;;;;;;;27.43;46.03;101325.34;5031256;28;20599;-46
2023/06/26 00:12:36;;;;;;;11.05;6.25;;;;;;;27.25;46.57;101328.91;5031651;28;20041;-47
2023/06/26 00:15:01;;;;;;;8.82;5.50;;;;;;;26.94;47.15;101330.41;5031786;28;20377;-46
2023/06/26 00:17:27;;;;;;;10.30;5.75;;;;;;;26.96;47.54;101338.31;5028749;28;20034;-47
2023/06/26 00:19:52;;;;;;;8.77;6.07;;;;;;;26.58;48.49;101340.97;5031500;28;20108;-46
2023/06/26 00:22:18;;;;;;;8.95;5.90;;;;;;;26.88;47.89;101344.06;5029939;28;20033;-47
2023/06/26 00:24:44;;;;;;;10.45;5.75;;;;;;;26.90;47.29;101350.19;5029983;28;20045;-49
2023/06/26 00:27:10;;;;;;;10.40;5.50;;;;;;;26.89;46.96;101353.81;5029961;28;20057;-46
2023/06/26 00:29:36;;;;;;;9.80;5.28;;;;;;;26.86;46.71;101342.34;5030335;28;20115;-49
2023/06/26 00:32:01;;;;;;;9.88;5.22;;;;;;;26.71;46.88;101348.44;5030550;28;20124;-44
2023/06/26 00:34:26;;;;;;;9.95;5.03;;;;;;;26.51;46.96;101343.97;5029098;28;20127;-46
2023/06/26 00:36:52;;;;;;;8.13;4.78;;;;;;;26.27;47.16;101340.59;5028110;28;20033;-50
2023/06/26 00:39:17;;;;;;;8.32;4.78;;;;;;;26.25;47.28;101353.16;5029307;28;20030;-48
2023/06/26 00:41:43;;;;;;;9.35;4.40;;;;;;;26.35;47.07;101345.63;5030098;28;20061;-49
2023/06/26 00:44:08;;;;;;;11.18;4.60;;;;;;;26.57;46.24;101346.38;5029302;28;20120;-47
2023/06/26 00:46:34;;;;;;;6.93;4.43;;;;;;;26.30;47.31;101344.94;5029243;28;20060;-50
2023/06/26 00:49:01;;;;;;;9.13;4.80;;;;;;;26.06;48.39;101354.84;5029638;28;20029;-49
2023/06/26 00:51:31;;;;;;;14.05;4.70;;;;;;;26.34;47.80;101342.06;5029360;28;20034;-49
2023/06/26 00:53:57;;;;;;;10.60;4.88;;;;;;;25.90;49.19;101351.13;5029834;28;20034;-48
2023/06/26 00:56:23;;;;;;;8.73;4.55;;;;;;;25.97;49.04;101357.94;5028995;28;20037;-46
2023/06/26 00:58:49;;;;;;;10.32;4.90;;;;;;;25.93;49.20;101353.63;5027711;28;20031;-50
2023/06/26 01:01:17;;;;;;;10.15;4.80;;;;;;;25.74;49.90;101359.75;5029158;28;20124;-47
2023/06/26 01:03:44;;;;;;;8.00;4.70;;;;;;;25.57;50.48;101361.38;5029623;28;20034;-47
2023/06/26 01:06:11;;;;;;;14.55;4.82;;;;;;;25.89;50.00;101352.91;5028732;28;20056;-52
2023/06/26 01:08:38;;;;;;;9.05;4.43;;;;;;;25.89;50.14;101350.25;5029554;28;20041;-48
2023/06/26 01:11:04;;;;;;;11.20;4.93;;;;;;;26.11;49.22;101345.69;5029531;28;20092;-42
2023/06/26 01:13:29;;;;;;;16.63;4.95;;;;;;;25.64;50.55;101345.06;5027569;28;20029;-45
2023/06/26 01:15:57;;;;;;;9.68;4.78;;;;;;;25.63;51.06;101353.13;5028759;28;20068;-48
2023/06/26 01:18:23;;;;;;;9.95;4.57;;;;;;;25.68;50.79;101348.47;5028470;28;20225;-46
2023/06/26 01:20:48;;;;;;;10.20;4.50;;;;;;;25.82;50.29;101365.66;5029481;28;20057;-50
2023/06/26 01:23:36;;;;;;;10.05;4.25;;;;;;;26.01;49.80;101359.53;5028605;28;20065;-46
2023/06/26 01:26:07;;;;;;;9.40;4.32;;;;;;;26.04;49.69;101362.09;5029488;28;20034;-49
2023/06/26 01:28:35;;;;;;;11.25;4.93;;;;;;;25.84;50.16;101368.28;5029113;28;20040;-48
2023/06/26 01:31:04;;;;;;;11.05;4.78;;;;;;;25.65;50.87;101357.47;5029988;28;20527;-46
2023/06/26 01:33:30;;;;;;;12.95;5.30;;;;;;;25.62;52.84;101362.06;5031029;28;20041;-47
2023/06/26 01:35:55;;;;;;;12.55;4.50;;;;;;;25.52;52.19;101358.88;5030810;28;20034;-46
2023/06/26 01:38:23;;;;;;;10.02;4.55;;;;;;;25.64;52.26;101357.53;5030022;28;20128;-49
2023/06/26 01:40:50;;;;;;;13.10;4.90;;;;;;;25.51;52.45;101367.81;5029306;28;20025;-44
2023/06/26 01:43:40;;;;;;;15.05;5.07;;;;;;;25.33;52.63;101364.09;5030667;28;20111;-50
2023/06/26 01:46:25;;;;;;;12.60;4.90;;;;;;;25.30;52.32;101355.34;5030484;28;20035;-46
2023/06/26 01:49:01;;;;;;;16.65;5.40;;;;;;;24.88;53.64;101371.19;5030977;28;20033;-48
2023/06/26 01:51:38;;;;;;;10.70;4.68;;;;;;;25.17;52.55;101356.75;5029547;28;20040;-46
2023/06/26 01:54:06;;;;;;;10.85;4.80;;;;;;;24.97;53.36;101365.53;5029854;28;20044;-45
2023/06/26 01:56:32;;;;;;;12.73;5.10;;;;;;;25.26;52.42;101369.72;5029581;28;20199;-50
2023/06/26 01:58:59;;;;;;;10.35;4.72;;;;;;;25.04;53.37;101365.25;5029342;28;20053;-45
2023/06/26 02:01:24;;;;;;;14.13;4.95;;;;;;;24.76;54.00;101371.66;5030074;28;20037;-47
2023/06/26 02:03:50;;;;;;;16.38;5.20;;;;;;;24.41;55.55;101364.94;5028858;28;20496;-44
2023/06/26 02:06:15;;;;;;;16.75;5.30;;;;;;;24.60;54.56;101374.88;5028594;28;20377;-44
2023/06/26 02:08:41;;;;;;;16.15;5.47;;;;;;;24.71;54.24;101376.28;5029315;28;20119;-47
2023/06/26 02:11:07;;;;;;;14.00;4.93;;;;;;;24.61;55.05;101371.28;5027403;28;20038;-46
2023/06/26 02:13:32;;;;;;;15.50;5.18;;;;;;;24.69;55.03;101383.47;5029197;28;20049;-44
2023/06/26 02:15:58;;;;;;;16.13;5.57;;;;;;;24.58;55.18;101370.53;5028962;28;20466;-46
2023/06/26 02:18:24;;;;;;;15.10;5.45;;;;;;;24.50;55.41;101375.28;5028213;28;20037;-48
2023/06/26 02:20:49;;;;;;;13.63;5.35;;;;;;;24.59;55.36;101370.47;5029285;28;20053;-46
2023/06/26 02:23:15;;;;;;;15.88;5.25;;;;;;;24.46;55.71;101365.63;5028456;28;20571;-53
2023/06/26 02:25:41;;;;;;;21.17;5.90;;;;;;;24.56;55.25;101375.06;5028803;28;20421;-47
2023/06/26 02:28:06;;;;;;;15.18;5.40;;;;;;;24.45;55.71;101388.78;5028542;28;20063;-44
2023/06/26 02:30:31;;;;;;;14.50;4.93;;;;;;;24.38;55.43;101392.59;5031578;28;20405;-48
2023/06/26 02:32:57;;;;;;;14.00;5.32;;;;;;;24.50;55.08;101385.94;5033515;28;20056;-46
2023/06/26 02:35:22;;;;;;;14.38;5.07;;;;;;;24.46;54.43;101376.28;5031282;28;20033;-46
2023/06/26 02:37:47;;;;;;;16.40;5.38;;;;;;;24.63;53.89;101388.13;5033242;28;20030;-44
2023/06/26 02:40:13;;;;;;;18.90;5.50;;;;;;;24.45;54.34;101394.13;5034003;28;20071;-43
2023/06/26 02:42:38;;;;;;;14.05;5.22;;;;;;;24.19;55.33;101388.81;5034133;28;20029;-48
2023/06/26 02:45:04;;;;;;;16.50;5.78;;;;;;;24.06;55.37;101398.13;5032334;28;20487;-47
2023/06/26 02:47:29;;;;;;;18.60;5.78;;;;;;;24.21;55.46;101394.97;5031230;28;20087;-47
2023/06/26 02:49:54;;;;;;;15.02;5.78;;;;;;;24.03;56.15;101400.91;5031957;28;20121;-48
2023/06/26 02:52:20;;;;;;;18.15;5.60;;;;;;;23.61;56.84;101417.34;5031371;28;20064;-46
2023/06/26 02:54:45;;;;;;;19.13;5.50;;;;;;;23.65;57.33;101407.50;5032151;28;20117;-46
2023/06/26 02:57:14;;;;;;;18.05;5.80;;;;;;;23.74;57.10;101415.16;5031058;28;20048;-49
2023/06/26 02:59:39;;;;;;;16.38;5.57;;;;;;;23.64;57.13;101422.59;5030788;28;20033;-47
2023/06/26 03:02:05;;;;;;;23.88;6.45;;;;;;;23.76;56.90;101427.50;5031974;28;20499;-44
2023/06/26 03:04:30;;;;;;;15.82;5.38;;;;;;;23.70;57.37;101433.03;5030012;28;20090;-46
2023/06/26 03:06:55;;;;;;;15.45;5.82;;;;;;;23.70;57.39;101437.50;5031462;28;20512;-47
2023/06/26 03:09:21;;;;;;;18.23;5.63;;;;;;;23.76;56.71;101434.63;5031287;28;20518;-44
2023/06/26 03:11:47;;;;;;;18.25;5.70;;;;;;;23.51;57.50;101436.31;5031917;28;20033;-49
2023/06/26 03:14:12;;;;;;;16.52;5.88;;;;;;;23.56;57.54;101432.59;5031101;28;20129;-47
2023/06/26 03:16:37;;;;;;;18.83;5.47;;;;;;;23.60;57.01;101438.72;5031284;28;20120;-50
2023/06/26 03:19:04;;;;;;;16.58;5.32;;;;;;;23.28;57.43;101429.91;5030352;28;20044;-46
2023/06/26 03:21:30;;;;;;;13.93;5.30;;;;;;;23.43;57.03;101436.50;5029801;28;20029;-45
2023/06/26 03:23:55;;;;;;;13.63;5.28;;;;;;;23.65;56.35;101439.44;5031413;28;20083;-44
2023/06/26 03:26:28;;;;;;;17.90;5.80;;;;;;;23.42;56.89;101440.97;5030805;28;20459;-45
2023/06/26 03:28:54;;;;;;;17.90;5.55;;;;;;;23.56;56.98;101445.91;5031560;28;20029;-46
2023/06/26 03:31:20;;;;;;;18.00;5.32;;;;;;;23.45;56.92;101453.31;5029814;28;20038;-47
2023/06/26 03:33:45;;;;;;;16.35;4.85;;;;;;;23.46;56.73;101449.75;5030208;28;20112;-46
2023/06/26 03:36:10;;;;;;;13.40;5.10;;;;;;;23.54;56.60;101446.88;5030491;28;20176;-49
2023/06/26 03:38:36;;;;;;;12.90;5.20;;;;;;;23.28;57.95;101453.84;5031112;28;20026;-50
2023/06/26 03:41:02;;;;;;;11.20;4.75;;;;;;;23.48;57.13;101452.41;5031325;28;20060;-43
2023/06/26 03:43:27;;;;;;;13.10;4.88;;;;;;;23.28;57.62;101448.50;5031051;28;20029;-47
2023/06/26 03:45:52;;;;;;;12.88;4.80;;;;;;;23.45;56.55;101450.66;5031513;28;20143;-43
2023/06/26 03:48:18;;;;;;;9.43;4.63;;;;;;;23.40;57.10;101453.47;5030562;28;20092;-44
2023/06/26 03:50:44;;;;;;;12.27;4.60;;;;;;;23.54;55.96;101450.41;5031056;28;20041;-46
2023/06/26 03:53:09;;;;;;;14.55;4.90;;;;;;;22.98;58.00;101454.72;5030651;28;20094;-44
2023/06/26 03:55:34;;;;;;;16.98;5.10;;;;;;;23.12;57.39;101462.28;5030796;28;20037;-45
2023/06/26 03:58:00;;;;;;;16.65;5.00;;;;;;;23.06;57.53;101456.25;5030529;28;20036;-45
2023/06/26 04:00:25;;;;;;;13.77;4.80;;;;;;;23.27;57.00;101467.19;5030335;28;20574;-46
2023/06/26 04:02:51;;;;;;;13.68;4.93;;;;;;;23.30;56.89;101464.41;5029847;28;20022;-46
2023/06/26 04:05:16;;;;;;;12.20;4.75;;;;;;;23.30;57.12;101475.06;5030294;28;20038;-52
2023/06/26 04:07:42;;;;;;;13.55;4.65;;;;;;;23.05;57.72;101490.88;5028776;28;20064;-43
2023/06/26 04:10:08;;;;;;;11.35;4.60;;;;;;;23.26;57.22;101487.59;5030158;28;20659;-47
2023/06/26 04:12:33;;;;;;;12.05;4.80;;;;;;;23.10;57.98;101488.09;5030607;28;20136;-46
2023/06/26 04:14:59;;;;;;;9.82;4.28;;;;;;;23.01;57.77;101503.38;5030635;28;20191;-45
2023/06/26 04:17:24;;;;;;;14.20;4.65;;;;;;;22.87;57.68;101499.38;5029753;28;20370;-44
2023/06/26 04:19:49;;;;;;;10.13;4.07;;;;;;;22.89;57.92;101497.53;5029448;28;20512;-47
2023/06/26 04:22:15;;;;;;;11.50;3.92;;;;;;;22.97;57.43;101499.06;5029996;28;20543;-54
2023/06/26 04:24:40;;;;;;;12.27;4.13;;;;;;;22.73;57.58;101504.19;5030453;28;20663;-47
2023/06/26 04:27:05;;;;;;;8.93;3.90;;;;;;;23.20;56.33;101501.06;5029924;28;20034;-45
2023/06/26 04:29:31;;;;;;;7.28;3.40;;;;;;;22.99;56.45;101512.31;5030429;28;20396;-44
2023/06/26 04:31:59;;;;;;;7.50;3.67;;;;;;;22.90;57.02;101510.78;5030368;28;20065;-47
2023/06/26 04:34:25;;;;;;;7.15;3.65;;;;;;;22.98;56.95;101507.91;5030004;28;20041;-46
2023/06/26 04:36:51;;;;;;;8.18;3.50;;;;;;;23.28;56.21;101515.03;5029898;28;20037;-45
2023/06/26 04:39:16;;;;;;;9.88;3.53;;;;;;;23.38;55.84;101508.50;5029768;28;20124;-47
2023/06/26 04:41:42;;;;;;;7.30;3.40;;;;;;;23.21;55.38;101518.78;5030323;28;20076;-50
2023/06/26 04:44:07;;;;;;;7.43;3.63;;;;;;;23.13;55.72;101522.56;5029824;28;20061;-46
2023/06/26 04:46:32;;;;;;;8.15;3.50;;;;;;;23.03;56.16;101522.81;5029693;28;20037;-47
2023/06/26 04:48:58;;;;;;;7.05;3.35;;;;;;;22.91;56.80;101536.47;5029848;28;20033;-46
2023/06/26 04:51:26;;;;;;;8.55;3.63;;;;;;;23.01;57.17;101532.63;5029589;28;20651;-46
2023/06/26 04:53:52;;;;;;;9.50;3.97;;;;;;;22.96;57.53;101526.56;5029773;28;20484;-47
2023/06/26 04:56:17;;;;;;;10.57;3.95;;;;;;;22.58;58.40;101542.63;5029066;28;20044;-45
2023/06/26 04:58:43;;;;;;;8.43;4.00;;;;;;;22.72;58.97;101553.81;5029210;28;20030;-49
2023/06/26 05:01:08;;;;;;;5.95;3.50;;;;;;;22.79;59.08;101559.84;5029938;28;20021;-46
2023/06/26 05:03:34;;;;;;;9.02;3.97;;;;;;;22.92;59.22;101547.97;5031216;28;20112;-47
2023/06/26 05:05:59;;;;;;;10.63;4.00;;;;;;;23.19;58.29;101556.97;5030207;28;20553;-46
2023/06/26 05:08:28;;;;;;;7.95;4.28;;;;;;;22.88;59.20;101568.44;5030713;28;20041;-45
2023/06/26 05:10:57;;;;;;;14.77;6.57;;;;;;;22.77;59.23;101574.94;5030732;28;20037;-46
2023/06/26 05:13:23;;;;;;;6.72;3.70;;;;;;;23.29;57.66;101582.41;5029603;28;20128;-45
2023/06/26 05:15:48;;;;;;;6.45;3.80;;;;;;;23.35;57.51;101576.91;5029690;28;20033;-43
2023/06/26 05:18:14;;;;;;;6.28;3.25;;;;;;;24.09;55.05;101581.84;5028617;28;20411;-52
2023/06/26 05:20:40;;;;;;;5.00;3.45;;;;;;;25.00;52.56;101577.06;5029337;28;20061;-43
2023/06/26 05:23:05;;;;;;;9.80;3.70;;;;;;;24.58;53.25;101583.78;5029132;28;20029;-52
2023/06/26 05:25:31;;;;;;;5.85;3.40;;;;;;;24.60;53.13;101587.28;5030252;28;20504;-48
2023/06/26 05:27:57;;;;;;;7.20;3.20;;;;;;;24.98;51.61;101576.22;5028886;28;20033;-49
2023/06/26 05:30:27;;;;;;;6.93;3.30;;;;;;;25.57;49.16;101580.34;5029122;28;20053;-45
2023/06/26 05:32:54;;;;;;;10.40;3.20;;;;;;;25.59;48.93;101583.84;5029638;28;20040;-49
2023/06/26 05:35:22;;;;;;;7.18;3.03;;;;;;;24.94;49.08;101603.06;5029209;28;20365;-45
2023/06/26 05:37:50;;;;;;;10.05;2.70;;;;;;;24.39;50.16;101604.88;5029319;28;20067;-45
2023/06/26 05:40:17;;;;;;;5.88;2.38;;;;;;;24.04;50.00;101602.41;5029413;28;20033;-49
2023/06/26 05:42:42;;;;;;;6.88;2.22;;;;;;;23.73;51.03;101613.97;5029877;28;20548;-46
2023/06/26 05:45:09;;;;;;;6.88;2.42;;;;;;;23.88;50.75;101612.66;5029122;28;20031;-48
2023/06/26 05:47:34;;;;;;;7.28;2.10;;;;;;;23.70;50.91;101622.06;5029360;28;20037;-45
2023/06/26 05:49:59;;;;;;;9.25;2.40;;;;;;;;;;5029460;28;20053;-46
2023/06/26 05:52:25;;;;;;;6.43;2.03;;;;;;;24.14;49.00;101633.19;5028913;28;20037;-44
2023/06/26 05:54:51;;;;;;;4.78;2.00;;;;;;;24.93;47.15;101638.66;5029664;28;20171;-47
2023/06/26 05:57:17;;;;;;;10.13;1.90;;;;;;;26.23;43.28;101633.88;5028612;28;20128;-45
2023/06/26 05:59:43;;;;;;;4.82;1.80;;;;;;;26.27;43.15;101634.63;5029342;28;20041;-47
2023/06/26 06:02:08;;;;;;;7.20;1.77;;;;;;;25.17;45.32;101640.50;5028907;28;20029;-48
2023/06/26 06:04:35;;;;;;;4.97;1.73;;;;;;;25.28;44.93;101635.63;5029070;28;20030;-50
2023/06/26 06:07:00;;;;;;;7.65;2.20;;;;;;;24.85;46.22;101636.22;5030665;28;20112;-51
2023/06/26 06:09:26;;;;;;;7.82;1.90;;;;;;;24.52;45.70;101639.97;5032284;28;20029;-44
2023/06/26 06:11:51;;;;;;;7.70;1.90;;;;;;;24.20;47.01;101643.69;5033122;28;20056;-46
2023/06/26 06:14:16;;;;;;;7.32;1.95;;;;;;;23.77;48.18;101646.72;5031319;28;20033;-49
2023/06/26 06:16:42;;;;;;;6.65;1.60;;;;;;;25.36;45.05;101646.94;5032655;28;20539;-48
2023/06/26 06:19:10;;;;;;;8.80;1.95;;;;;;;25.21;44.65;101658.13;5032429;28;20084;-46
2023/06/26 06:21:36;;;;;;;6.93;1.90;;;;;;;25.49;43.88;101662.50;5032805;28;20057;-44
2023/06/26 06:24:01;;;;;;;7.45;1.77;;;;;;;24.69;45.36;101671.44;5032619;28;20060;-50
2023/06/26 06:26:27;;;;;;;6.50;1.75;;;;;;;25.24;44.02;101663.38;5031557;28;20453;-50
2023/06/26 06:28:52;;;;;;;5.05;1.73;;;;;;;25.54;42.70;101664.09;5032503;28;20033;-50
2023/06/26 06:31:17;;;;;;;8.98;2.10;;;;;;;25.52;43.40;101679.28;5031928;28;20067;-49
2023/06/26 06:33:43;;;;;;;6.88;1.60;;;;;;;25.22;43.43;101673.22;5033278;28;20044;-46
2023/06/26 06:36:08;;;;;;;7.65;2.00;;;;;;;25.73;42.78;101681.22;5034050;28;20121;-44
2023/06/26 06:38:33;;;;;;;5.60;1.50;;;;;;;25.55;42.37;101673.84;5032944;28;20117;-51
2023/06/26 06:40:59;;;;;;;6.25;2.00;;;;;;;25.96;42.22;101676.81;5032426;28;20025;-46
2023/06/26 06:43:24;;;;;;;8.93;1.80;;;;;;;26.43;41.26;101683.88;5032081;28;20041;-44
2023/06/26 06:45:49;;;;;;;9.38;2.00;;;;;;;27.16;39.49;101682.69;5033089;28;20088;-44
2023/06/26 06:48:15;;;;;;;9.82;2.10;;;;;;;26.76;40.52;101691.50;5031087;28;20053;-44
2023/06/26 06:50:40;;;;;;;6.50;1.90;;;;;;;26.30;41.25;101697.78;5032827;28;20029;-45
2023/06/26 06:53:05;;;;;;;16.58;2.42;;;;;;;26.54;40.80;101702.16;5031973;28;20033;-47
2023/06/26 06:55:30;;;;;;;25.90;4.65;;;;;;;26.83;40.15;101723.31;5032130;28;20075;-47
2023/06/26 06:57:56;;;;;;;151.30;14.35;;;;;;;26.03;41.61;101721.06;5031569;28;20036;-45
2023/06/26 07:00:21;;;;;;;7.20;1.80;;;;;;;25.52;42.51;101718.44;5031946;28;20037;-47
2023/06/26 07:02:47;;;;;;;24.30;3.65;;;;;;;25.75;42.08;101718.53;5031950;28;20075;-50
2023/06/26 07:05:12;;;;;;;4.95;1.63;;;;;;;26.46;41.09;101717.66;5031395;28;20033;-44
2023/06/26 07:07:39;;;;;;;6.10;1.70;;;;;;;26.66;40.39;101720.41;5031882;28;20037;-47
2023/06/26 07:10:06;;;;;;;6.38;1.83;;;;;;;26.77;40.20;101728.91;5031897;28;20103;-46
2023/06/26 07:12:31;;;;;;;7.97;2.10;;;;;;;27.21;39.13;101727.06;5031802;28;20068;-51
2023/06/26 07:14:57;;;;;;;7.25;1.90;;;;;;;26.56;40.83;101725.25;5031850;28;20563;-45
2023/06/26 07:17:23;;;;;;;9.23;1.73;;;;;;;26.74;39.94;101733.47;5030204;28;20492;-45
2023/06/26 07:19:49;;;;;;;15.70;2.15;;;;;;;26.82;39.69;101736.72;5031639;28;20037;-48
2023/06/26 07:22:16;;;;;;;16.42;2.80;;;;;;;26.59;39.39;101740.34;5031555;28;20124;-47
2023/06/26 07:24:41;;;;;;;26.83;2.92;;;;;;;26.92;38.76;101739.00;5031482;28;20041;-47
2023/06/26 07:27:06;;;;;;;13.25;2.08;;;;;;;26.30;40.63;101746.78;5030832;28;20096;-48
2023/06/26 07:29:32;;;;;;;17.58;2.42;;;;;;;26.73;39.51;101743.31;5031642;28;20033;-51
2023/06/26 07:31:57;;;;;;;34.50;4.03;;;;;;;26.10;41.08;101752.88;5031269;28;20700;-45
2023/06/26 07:34:22;;;;;;;9.15;1.73;;;;;;;27.16;39.13;101746.94;5030867;28;20057;-49
2023/06/26 07:36:48;;;;;;;22.95;2.50;;;;;;;26.58;39.89;101754.63;5030959;28;20036;-46
2023/06/26 07:39:13;;;;;;;25.40;2.50;;;;;;;27.34;38.46;101757.75;5031833;28;20033;-45
2023/06/26 07:41:38;;;;;;;22.13;2.53;;;;;;;26.67;39.40;101768.50;5032349;28;20484;-45
2023/06/26 07:44:04;;;;;;;13.45;2.03;;;;;;;27.25;38.47;101759.97;5032316;28;20040;-47
2023/06/26 07:46:29;;;;;;;6.97;1.63;;;;;;;27.99;36.10;101758.53;5031441;28;20517;-46
2023/06/26 07:48:54;;;;;;;8.45;1.80;;;;;;;27.37;37.54;101773.69;5031849;28;20045;-48
2023/06/26 07:51:20;;;;;;;7.85;1.73;;;;;;;27.52;37.31;101772.19;5031211;28;20029;-45
2023/06/26 07:53:45;;;;;;;5.15;1.50;;;;;;;28.22;35.80;101761.06;5031666;28;20444;-47
2023/06/26 07:56:11;;;;;;;6.10;1.60;;;;;;;28.25;35.07;101777.88;5030556;28;20044;-43
2023/06/26 07:58:36;;;;;;;8.60;2.10;;;;;;;28.30;34.89;101780.34;5031170;28;20053;-46
2023/06/26 08:01:01;;;;;;;5.10;1.50;;;;;;;28.41;35.47;101779.84;5030625;28;20021;-49
2023/06/26 08:03:27;;;;;;;4.93;1.65;;;;;;;28.00;36.11;101782.56;5029207;28;20064;-45
2023/06/26 08:05:52;;;;;;;7.03;1.83;;;;;;;27.69;36.86;101780.38;5030727;28;20099;-44
2023/06/26 08:08:17;;;;;;;5.63;1.80;;;;;;;28.10;36.00;101789.28;5029842;28;20128;-45
2023/06/26 08:10:43;;;;;;;4.68;1.67;;;;;;;27.32;37.78;101786.41;5030844;28;20150;-46
2023/06/26 08:13:08;;;;;;;7.60;1.88;;;;;;;26.85;38.51;101787.44;5030286;28;20453;-48
2023/06/26 08:15:34;;;;;;;6.05;1.98;;;;;;;26.48;38.81;101798.69;5030819;28;20038;-46
2023/06/26 08:17:59;;;;;;;5.93;1.90;;;;;;;26.81;38.60;101781.34;5030538;28;20034;-47
2023/06/26 08:20:24;;;;;;;6.28;1.90;;;;;;;27.89;36.12;101789.34;5029688;28;25001;-50
2023/06/26 08:22:52;;;;;;;7.72;1.95;;;;;;;27.76;36.65;101797.94;5030188;28;20045;-48
2023/06/26 08:25:17;;;;;;;7.05;1.90;;;;;;;28.21;35.74;101796.88;5029808;28;20040;-47
2023/06/26 08:27:43;;;;;;;7.63;1.80;;;;;;;28.21;34.81;101795.06;5029325;28;20026;-51
2023/06/26 08:30:09;;;;;;;9.95;2.00;;;;;;;28.96;34.27;101794.25;5029361;28;20052;-44
2023/06/26 08:32:34;;;;;;;4.55;1.75;;;;;;;29.03;33.31;101795.69;5030086;28;20474;-48
2023/06/26 08:34:59;;;;;;;3.42;1.70;;;;;;;27.91;34.69;101807.13;5030044;28;20029;-45
2023/06/26 08:37:25;;;;;;;5.93;2.17;;;;;;;28.29;34.72;101796.53;5029443;28;20033;-49
2023/06/26 08:39:50;;;;;;;5.78;1.88;;;;;;;27.88;35.48;101811.72;5030112;28;20116;-47
2023/06/26 08:42:16;;;;;;;8.13;1.95;;;;;;;27.10;37.31;101816.78;5029464;28;20049;-49
2023/06/26 08:44:41;;;;;;;6.65;2.00;;;;;;;26.00;39.25;101822.72;5029634;28;20029;-46
2023/06/26 08:47:07;;;;;;;4.28;1.60;;;;;;;25.89;38.92;101828.44;5027802;28;20077;-46
2023/06/26 08:50:00;;;;;;;6.30;1.77;;;;;;;25.91;39.32;101826.59;5029935;28;20028;-51
2023/06/26 08:52:33;;;;;;;5.88;1.70;;;;;;;25.59;39.54;101830.38;5029216;28;20076;-46
2023/06/26 08:55:02;;;;;;;7.68;1.52;;;;;;;25.80;39.53;101816.28;5029617;28;20041;-46
2023/06/26 08:57:29;;;;;;;8.27;2.33;;;;;;;25.61;40.84;101827.66;5028657;28;20112;-47
2023/06/26 08:59:55;;;;;;;8.40;2.30;;;;;;;25.61;40.29;101827.66;5029608;28;20033;-48
2023/06/26 09:02:23;;;;;;;9.38;2.30;;;;;;;25.21;41.09;101825.38;5029200;28;20175;-48
2023/06/26 09:04:50;;;;;;;5.43;2.03;;;;;;;25.28;41.09;101837.63;5029431;28;20032;-49
2023/06/26 09:07:16;;;;;;;6.18;2.03;;;;;;;25.24;41.63;101842.19;5028553;28;20124;-51
2023/06/26 09:09:42;;;;;;;10.05;2.13;;;;;;;25.05;42.38;101854.38;5029276;28;20048;-49
2023/06/26 09:12:08;;;;;;;7.75;2.10;;;;;;;24.74;43.35;101849.06;5028480;28;20496;-49
2023/06/26 09:14:34;;;;;;;5.40;2.00;;;;;;;24.83;43.56;101843.44;5029239;28;20114;-49
2023/06/26 09:16:59;;;;;;;5.82;2.10;;;;;;;25.16;42.52;101849.56;5028961;28;20076;-50
2023/06/26 09:19:24;;;;;;;5.75;2.72;;;;;;;24.89;43.02;101855.75;5028826;28;20474;-46
2023/06/26 09:21:51;;;;;;;6.65;1.90;;;;;;;25.39;42.37;101860.38;5029261;28;20036;-47
2023/06/26 09:24:17;;;;;;;5.90;2.00;;;;;;;24.77;43.44;101861.41;5028867;28;20535;-47
2023/06/26 09:26:42;;;;;;;6.30;2.50;;;;;;;24.78;44.56;101858.72;5028727;28;20060;-48
2023/06/26 09:29:09;;;;;;;7.45;2.20;;;;;;;24.75;43.51;101879.28;5028847;28;20363;-49
2023/06/26 09:31:37;;;;;;;7.10;2.22;;;;;;;24.94;43.79;101875.16;5029037;28;20033;-46
2023/06/26 09:34:03;;;;;;;9.30;2.70;;;;;;;24.62;43.62;101876.97;5029191;28;20029;-46
2023/06/26 09:36:33;;;;;;;13.80;2.75;;;;;;;24.62;44.97;101876.09;5028406;28;20034;-48
2023/06/26 09:39:10;;;;;;;7.35;2.20;;;;;;;24.73;43.55;101879.31;5029503;28;20138;-51
2023/06/26 09:41:36;;;;;;;13.02;3.47;;;;;;;25.06;42.83;101874.81;5033020;28;20059;-51
2023/06/26 09:44:02;;;;;;;6.35;2.25;;;;;;;24.59;43.33;101884.16;5033314;28;20499;-46
2023/06/26 09:46:30;;;;;;;8.52;2.10;;;;;;;24.82;42.38;101889.72;5032329;28;20049;-45
2023/06/26 09:48:59;;;;;;;8.90;2.25;;;;;;;24.44;43.96;101905.94;5033148;28;20113;-47
2023/06/26 09:51:24;;;;;;;10.82;2.47;;;;;;;24.77;42.91;101909.41;5032587;28;20033;-45
2023/06/26 09:53:49;;;;;;;10.68;2.28;;;;;;;24.82;41.89;101916.41;5033006;28;20036;-48
2023/06/26 09:56:17;;;;;;;5.28;1.88;;;;;;;24.62;41.39;101908.09;5031857;28;20045;-46
2023/06/26 09:58:43;;;;;;;6.88;1.65;;;;;;;24.75;41.44;101904.16;5033011;28;20060;-46
2023/06/26 10:01:09;;;;;;;6.22;1.80;;;;;;;24.90;40.93;101902.84;5032554;28;20030;-49
2023/06/26 10:03:35;;;;;;;7.85;1.90;;;;;;;24.57;42.08;101910.88;5029469;28;20030;-45
2023/06/26 10:06:02;;;;;;;6.82;1.88;;;;;;;24.64;42.30;101915.09;5032745;28;20442;-43
2023/06/26 10:08:29;;;;;;;5.57;1.85;;;;;;;24.44;42.88;101916.59;5031682;28;20037;-51
2023/06/26 10:10:56;;;;;;;7.55;1.98;;;;;;;24.57;42.42;101923.34;5032071;28;20041;-45
2023/06/26 10:13:28;;;;;;;7.95;1.77;;;;;;;24.75;42.20;101917.47;5032170;28;20091;-52
2023/06/26 10:15:53;;;;;;;5.80;1.70;;;;;;;24.63;42.34;101921.38;5032605;28;20030;-45
2023/06/26 10:18:24;;;;;;;8.70;2.17;;;;;;;24.30;42.61;101922.28;5031511;28;20041;-44
2023/06/26 10:20:51;;;;;;;6.90;1.88;;;;;;;24.65;42.09;101915.97;5032442;28;20060;-47
2023/06/26 10:23:20;;;;;;;5.53;1.55;;;;;;;24.81;42.05;101917.31;5031902;28;20041;-49
2023/06/26 10:25:48;;;;;;;5.93;1.85;;;;;;;24.50;41.46;101930.63;5031309;28;20033;-46
2023/06/26 10:28:16;;;;;;;4.93;1.52;;;;;;;23.96;42.24;101938.25;5030230;28;20041;-49
2023/06/26 10:30:43;;;;;;;8.13;1.85;;;;;;;24.31;41.50;101939.16;5032156;28;20438;-48
2023/06/26 10:33:09;;;;;;;4.22;1.60;;;;;;;23.85;42.12;101933.19;5032364;28;20500;-47
2023/06/26 10:35:43;;;;;;;7.40;1.63;;;;;;;24.63;41.60;101936.50;5032362;28;20060;-49
2023/06/26 10:38:08;;;;;;;5.63;1.70;;;;;;;24.82;41.00;101948.41;5031592;28;20033;-46
2023/06/26 10:40:45;;;;;;;9.75;1.60;;;;;;;24.95;40.28;101954.25;5032711;28;20148;-48
2023/06/26 10:43:13;;;;;;;4.47;1.45;;;;;;;24.36;39.90;101951.44;5032005;28;20113;-47
2023/06/26 10:45:52;;;;;;;4.72;1.58;;;;;;;24.73;41.07;101955.78;5031168;28;20026;-42
2023/06/26 10:48:17;;;;;;;6.30;1.80;;;;;;;24.75;41.09;101954.81;5031963;28;20034;-50
2023/06/26 10:50:46;;;;;;;5.40;1.77;;;;;;;24.25;41.42;101953.53;5032811;28;20029;-41
2023/06/26 10:53:22;;;;;;;7.20;1.50;;;;;;;24.90;40.56;101949.06;5034649;28;20064;-47
2023/06/26 10:56:05;;;;;;;4.00;1.60;;;;;;;25.35;40.47;101957.50;5034223;28;20049;-44
2023/06/26 10:58:30;;;;;;;6.87;1.70;;;;;;;25.60;39.60;101959.44;5033580;28;20068;-44
2023/06/26 11:01:18;;;;;;;6.32;1.83;;;;;;;25.61;38.85;101956.72;5034859;28;20033;-46
2023/06/26 11:03:45;;;;;;;5.00;1.50;;;;;;;25.34;39.63;101969.09;5033927;28;20037;-46
2023/06/26 11:06:18;;;;;;;7.05;1.60;;;;;;;25.10;39.77;101975.19;5032779;28;20081;-50
2023/06/26 11:08:54;;;;;;;5.78;1.70;;;;;;;24.49;41.15;101981.31;5033168;28;20029;-44
2023/06/26 11:11:21;;;;;;;4.63;1.67;;;;;;;25.05;40.08;101990.44;5032854;28;20080;-43
2023/06/26 11:13:47;;;;;;;3.65;1.50;;;;;;;24.85;39.96;101982.09;5031338;28;20060;-49
2023/06/26 11:16:14;;;;;;;7.20;1.70;;;;;;;24.95;39.91;101986.28;5030780;28;20052;-51
2023/06/26 11:18:40;;;;;;;5.30;1.60;;;;;;;24.94;40.11;101995.22;5031805;28;20541;-47